EDW18A LSZH-LPFR
Flight info
| Callsign | EDW18A |
|---|---|
| Flight time | N/A |
| Altitude | 38000 |
| Route | LSZH VEBI1T VEBIT T50 ROTOS Z669 ULMES DCT VADAR DCT NINTU DCT MEBAK DCT REPSI DCT LERGA DCT MINSO DCT NARAK DCT AGN DCT PIPOR DCT PPN DCT MIRPO DCT DGO DCT NEA DCT ZANKO DCT RIDAV DCT ADINO DCT ELVAR DCT ALAGU DCT ELDUK DCT ODEMI ODEM1A LPFR |
| Aircraft | A20N/M-L/MCDU |
Departure
| Time | 2026-05-04 18:02 |
|---|---|
| Airport | Zürich Airport (LSZH) |
Arrival
| Time | N/A |
|---|---|
| Airport | Faro - Gago Coutinho International Airport (LPFR) |
| Time | Latitude | Longitude | Altitude | Speed | Heading |
|---|---|---|---|---|---|
| 2026-05-04 17:48 | 47.46163 | 8.55587 | 1397 ft | 0 kts | 186° |
| 2026-05-04 17:53 | 47.46167 | 8.55588 | 1406 ft | 2 kts | 186° |
| 2026-05-04 17:54 | 47.46187 | 8.55591 | 1400 ft | 4 kts | 186° |
| 2026-05-04 17:54 | 47.46212 | 8.55595 | 1404 ft | 4 kts | 186° |
| 2026-05-04 17:54 | 47.46236 | 8.55607 | 1407 ft | 4 kts | 232° |
| 2026-05-04 17:54 | 47.46245 | 8.55642 | 1400 ft | 4 kts | 276° |
| 2026-05-04 17:55 | 47.46244 | 8.55658 | 1404 ft | 0 kts | 275° |
| 2026-05-04 17:55 | 47.46245 | 8.55651 | 1405 ft | 2 kts | 275° |
| 2026-05-04 17:55 | 47.46245 | 8.55645 | 1400 ft | 0 kts | 275° |
| 2026-05-04 17:56 | 47.46247 | 8.55612 | 1407 ft | 9 kts | 275° |
| 2026-05-04 17:56 | 47.46255 | 8.55493 | 1401 ft | 14 kts | 275° |
| 2026-05-04 17:56 | 47.46266 | 8.55344 | 1396 ft | 15 kts | 278° |
| 2026-05-04 17:57 | 47.46278 | 8.55180 | 1396 ft | 17 kts | 275° |
| 2026-05-04 17:57 | 47.46291 | 8.55003 | 1398 ft | 18 kts | 275° |
| 2026-05-04 17:57 | 47.46302 | 8.54829 | 1397 ft | 15 kts | 278° |
| 2026-05-04 17:57 | 47.46333 | 8.54724 | 1403 ft | 10 kts | 339° |
| 2026-05-04 17:58 | 47.46388 | 8.54688 | 1403 ft | 10 kts | 335° |
| 2026-05-04 17:58 | 47.46456 | 8.54641 | 1399 ft | 11 kts | 335° |
| 2026-05-04 17:58 | 47.46536 | 8.54588 | 1402 ft | 14 kts | 336° |
| 2026-05-04 17:58 | 47.46636 | 8.54520 | 1397 ft | 17 kts | 333° |
| 2026-05-04 17:59 | 47.46744 | 8.54443 | 1402 ft | 18 kts | 335° |
| 2026-05-04 17:59 | 47.46862 | 8.54374 | 1399 ft | 19 kts | 333° |
| 2026-05-04 17:59 | 47.47023 | 8.54172 | 1400 ft | 6 kts | 287° |
| 2026-05-04 18:00 | 47.47023 | 8.54096 | 1398 ft | 9 kts | 257° |
| 2026-05-04 18:00 | 47.46989 | 8.54012 | 1400 ft | 10 kts | 211° |
| 2026-05-04 18:00 | 47.46941 | 8.54023 | 1404 ft | 0 kts | 155° |
| 2026-05-04 18:01 | 47.46793 | 8.54128 | 1401 ft | 64 kts | 155° |
| 2026-05-04 18:01 | 47.46154 | 8.54571 | 1407 ft | 136 kts | 154° |
| 2026-05-04 18:01 | 47.45152 | 8.55287 | 1674 ft | 167 kts | 156° |
| 2026-05-04 18:02 | 47.43777 | 8.56256 | 2699 ft | 177 kts | 159° |
| 2026-05-04 18:02 | 47.42607 | 8.57039 | 3340 ft | 192 kts | 159° |
| 2026-05-04 18:02 | 47.41323 | 8.57877 | 3779 ft | 212 kts | 159° |
| 2026-05-04 18:02 | 47.39907 | 8.58810 | 4127 ft | 230 kts | 158° |
| 2026-05-04 18:03 | 47.38549 | 8.60042 | 4482 ft | 228 kts | 134° |
| 2026-05-04 18:03 | 47.37806 | 8.62100 | 4876 ft | 233 kts | 101° |
| 2026-05-04 18:03 | 47.37901 | 8.64567 | 5205 ft | 253 kts | 71° |
| 2026-05-04 18:03 | 47.38845 | 8.66755 | 5454 ft | 255 kts | 41° |
| 2026-05-04 18:04 | 47.40371 | 8.67964 | 5709 ft | 257 kts | 12° |
| 2026-05-04 18:04 | 47.42146 | 8.67927 | 5970 ft | 259 kts | 342° |
| 2026-05-04 18:04 | 47.44885 | 8.64576 | 6490 ft | 261 kts | 306° |
| 2026-05-04 18:05 | 47.46036 | 8.62494 | 6725 ft | 261 kts | 303° |
| 2026-05-04 18:05 | 47.46798 | 8.60080 | 6977 ft | 259 kts | 279° |
| 2026-05-04 18:05 | 47.46843 | 8.57461 | 7225 ft | 255 kts | 259° |
| 2026-05-04 18:05 | 47.46520 | 8.54888 | 7474 ft | 253 kts | 250° |
| 2026-05-04 18:06 | 47.44949 | 8.50259 | 8422 ft | 253 kts | 238° |
| 2026-05-04 18:06 | 47.44137 | 8.48148 | 8904 ft | 255 kts | 238° |
| 2026-05-04 18:06 | 47.43254 | 8.45836 | 9430 ft | 265 kts | 238° |
| 2026-05-04 18:07 | 47.42322 | 8.43400 | 9962 ft | 278 kts | 238° |
| 2026-05-04 18:07 | 47.41678 | 8.41718 | 10288 ft | 281 kts | 238° |
| 2026-05-04 18:07 | 47.40687 | 8.39139 | 10657 ft | 301 kts | 238° |
| 2026-05-04 18:07 | 47.39607 | 8.36337 | 11035 ft | 320 kts | 238° |
| 2026-05-04 18:08 | 47.38490 | 8.33432 | 11420 ft | 337 kts | 239° |
| 2026-05-04 18:08 | 47.37344 | 8.30271 | 11810 ft | 354 kts | 241° |
| 2026-05-04 18:08 | 47.36189 | 8.26979 | 12202 ft | 368 kts | 241° |
| 2026-05-04 18:08 | 47.35005 | 8.23599 | 12587 ft | 378 kts | 241° |
| 2026-05-04 18:09 | 47.32563 | 8.16674 | 13384 ft | 381 kts | 241° |
| 2026-05-04 18:09 | 47.30052 | 8.09603 | 14445 ft | 393 kts | 241° |
| 2026-05-04 18:10 | 47.28778 | 8.06020 | 15027 ft | 397 kts | 241° |
| 2026-05-04 18:10 | 47.27495 | 8.02417 | 15612 ft | 400 kts | 241° |
| 2026-05-04 18:10 | 47.26294 | 7.98671 | 16219 ft | 404 kts | 246° |
| 2026-05-04 18:10 | 47.25236 | 7.94841 | 16830 ft | 407 kts | 246° |
| 2026-05-04 18:11 | 47.24266 | 7.91349 | 17388 ft | 409 kts | 246° |
| 2026-05-04 18:11 | 47.23187 | 7.87485 | 18030 ft | 411 kts | 246° |
| 2026-05-04 18:11 | 47.22104 | 7.83620 | 18626 ft | 412 kts | 246° |
| 2026-05-04 18:11 | 47.21006 | 7.79709 | 19168 ft | 414 kts | 246° |
| 2026-05-04 18:12 | 47.19875 | 7.75784 | 19760 ft | 415 kts | 243° |
| 2026-05-04 18:12 | 47.18510 | 7.72043 | 20347 ft | 414 kts | 237° |
| 2026-05-04 18:12 | 47.17022 | 7.68844 | 20897 ft | 414 kts | 232° |
| 2026-05-04 18:12 | 47.15207 | 7.65498 | 21503 ft | 414 kts | 231° |
| 2026-05-04 18:13 | 47.13410 | 7.62185 | 22138 ft | 414 kts | 231° |
| 2026-05-04 18:13 | 47.11624 | 7.58883 | 22710 ft | 416 kts | 231° |
| 2026-05-04 18:13 | 47.07986 | 7.52155 | 23538 ft | 425 kts | 230° |
| 2026-05-04 18:14 | 47.06129 | 7.48729 | 23904 ft | 429 kts | 230° |
| 2026-05-04 18:14 | 47.04260 | 7.45285 | 24250 ft | 433 kts | 230° |
| 2026-05-04 18:14 | 47.02376 | 7.41817 | 24597 ft | 436 kts | 230° |
| 2026-05-04 18:15 | 46.98564 | 7.34844 | 25323 ft | 441 kts | 230° |
| 2026-05-04 18:15 | 46.94719 | 7.27839 | 26058 ft | 444 kts | 230° |
| 2026-05-04 18:15 | 46.92769 | 7.24281 | 26439 ft | 445 kts | 230° |
| 2026-05-04 18:16 | 46.90849 | 7.20779 | 26816 ft | 446 kts | 230° |
| 2026-05-04 18:16 | 46.88889 | 7.17206 | 27197 ft | 447 kts | 229° |
| 2026-05-04 18:16 | 46.86960 | 7.13694 | 27580 ft | 446 kts | 229° |
| 2026-05-04 18:17 | 46.83059 | 7.06610 | 28390 ft | 445 kts | 229° |
| 2026-05-04 18:17 | 46.81116 | 7.03089 | 28798 ft | 443 kts | 229° |
| 2026-05-04 18:17 | 46.77264 | 6.96122 | 29636 ft | 440 kts | 229° |
| 2026-05-04 18:18 | 46.75342 | 6.92653 | 30058 ft | 439 kts | 229° |
| 2026-05-04 18:18 | 46.73420 | 6.89189 | 30425 ft | 437 kts | 229° |
| 2026-05-04 18:18 | 46.71516 | 6.85763 | 30794 ft | 436 kts | 229° |
| 2026-05-04 18:18 | 46.69626 | 6.82364 | 31168 ft | 434 kts | 229° |
| 2026-05-04 18:19 | 46.65871 | 6.75521 | 31929 ft | 431 kts | 233° |
| 2026-05-04 18:19 | 46.64248 | 6.71874 | 32319 ft | 430 kts | 237° |
| 2026-05-04 18:19 | 46.62695 | 6.68115 | 32721 ft | 428 kts | 237° |
| 2026-05-04 18:20 | 46.61177 | 6.64457 | 33116 ft | 425 kts | 237° |
| 2026-05-04 18:20 | 46.59648 | 6.60788 | 33529 ft | 423 kts | 237° |
| 2026-05-04 18:20 | 46.58117 | 6.57124 | 33942 ft | 420 kts | 237° |
| 2026-05-04 18:20 | 46.56610 | 6.53526 | 34309 ft | 417 kts | 237° |
| 2026-05-04 18:21 | 46.55108 | 6.49943 | 34666 ft | 414 kts | 237° |
| 2026-05-04 18:21 | 46.53590 | 6.46328 | 34931 ft | 413 kts | 237° |
| 2026-05-04 18:21 | 46.52107 | 6.42801 | 35186 ft | 413 kts | 237° |
| 2026-05-04 18:21 | 46.50605 | 6.39234 | 35433 ft | 412 kts | 237° |
| 2026-05-04 18:22 | 46.49106 | 6.35676 | 35677 ft | 411 kts | 237° |
| 2026-05-04 18:22 | 46.47615 | 6.32143 | 35926 ft | 410 kts | 237° |
| 2026-05-04 18:22 | 46.46129 | 6.28628 | 36180 ft | 409 kts | 237° |
| 2026-05-04 18:22 | 46.44645 | 6.25119 | 36430 ft | 408 kts | 237° |
| 2026-05-04 18:23 | 46.43157 | 6.21606 | 36689 ft | 406 kts | 237° |
| 2026-05-04 18:23 | 46.41678 | 6.18118 | 36950 ft | 404 kts | 237° |
| 2026-05-04 18:23 | 46.40210 | 6.14661 | 37218 ft | 402 kts | 237° |
| 2026-05-04 18:23 | 46.38762 | 6.11256 | 37476 ft | 399 kts | 237° |
| 2026-05-04 18:24 | 46.37313 | 6.07851 | 37741 ft | 396 kts | 237° |
| 2026-05-04 18:24 | 46.35864 | 6.04451 | 37996 ft | 394 kts | 237° |
| 2026-05-04 18:24 | 46.32958 | 5.97645 | 38023 ft | 400 kts | 237° |
| 2026-05-04 18:25 | 46.29996 | 5.90724 | 38027 ft | 407 kts | 237° |
| 2026-05-04 18:25 | 46.26998 | 5.83737 | 38025 ft | 413 kts | 237° |
| 2026-05-04 18:26 | 46.23921 | 5.76586 | 38025 ft | 419 kts | 237° |
| 2026-05-04 18:26 | 46.20840 | 5.69441 | 38028 ft | 424 kts | 237° |
| 2026-05-04 18:27 | 46.17707 | 5.62196 | 38026 ft | 423 kts | 237° |
| 2026-05-04 18:27 | 46.14579 | 5.55012 | 38023 ft | 423 kts | 235° |
| 2026-05-04 18:28 | 46.11222 | 5.48030 | 38020 ft | 423 kts | 234° |
| 2026-05-04 18:28 | 46.07888 | 5.41061 | 38019 ft | 423 kts | 234° |
| 2026-05-04 18:29 | 46.04540 | 5.34089 | 38016 ft | 423 kts | 234° |
| 2026-05-04 18:29 | 46.01167 | 5.27094 | 38013 ft | 424 kts | 234° |
| 2026-05-04 18:30 | 45.96129 | 5.16680 | 38003 ft | 424 kts | 234° |
| 2026-05-04 18:31 | 45.92736 | 5.09687 | 37998 ft | 424 kts | 234° |
| 2026-05-04 18:31 | 45.89366 | 5.02758 | 37998 ft | 425 kts | 234° |
| 2026-05-04 18:32 | 45.85977 | 4.95809 | 37993 ft | 425 kts | 234° |
| 2026-05-04 18:32 | 45.82568 | 4.88836 | 37992 ft | 426 kts | 234° |
| 2026-05-04 18:33 | 45.79175 | 4.81909 | 37996 ft | 426 kts | 234° |
| 2026-05-04 18:33 | 45.75762 | 4.74961 | 37997 ft | 426 kts | 234° |
| 2026-05-04 18:34 | 45.72349 | 4.68030 | 37996 ft | 427 kts | 234° |
| 2026-05-04 18:34 | 45.68916 | 4.61074 | 37993 ft | 427 kts | 234° |
| 2026-05-04 18:35 | 45.65496 | 4.54160 | 37981 ft | 427 kts | 234° |
| 2026-05-04 18:35 | 45.62056 | 4.47220 | 37971 ft | 427 kts | 234° |
| 2026-05-04 18:36 | 45.58610 | 4.40288 | 37971 ft | 427 kts | 234° |
| 2026-05-04 18:36 | 45.55144 | 4.33332 | 37969 ft | 427 kts | 234° |
| 2026-05-04 18:37 | 45.51712 | 4.26461 | 37971 ft | 427 kts | 234° |
| 2026-05-04 18:37 | 45.48237 | 4.19526 | 37961 ft | 427 kts | 234° |
| 2026-05-04 18:38 | 45.44798 | 4.12682 | 37962 ft | 427 kts | 233° |
| 2026-05-04 18:38 | 45.41326 | 4.05788 | 37960 ft | 427 kts | 233° |
| 2026-05-04 18:39 | 45.37862 | 3.98927 | 37979 ft | 427 kts | 233° |
| 2026-05-04 18:39 | 45.34968 | 3.93208 | 37970 ft | 426 kts | 233° |
| 2026-05-04 18:40 | 45.31508 | 3.86385 | 37962 ft | 426 kts | 233° |
| 2026-05-04 18:40 | 45.28031 | 3.79544 | 37964 ft | 426 kts | 233° |
| 2026-05-04 18:41 | 45.24570 | 3.72731 | 37955 ft | 426 kts | 234° |
| 2026-05-04 18:41 | 45.21163 | 3.65788 | 37974 ft | 426 kts | 234° |
| 2026-05-04 18:42 | 45.17788 | 3.58905 | 37961 ft | 426 kts | 234° |
| 2026-05-04 18:42 | 45.14390 | 3.52021 | 37953 ft | 425 kts | 234° |
| 2026-05-04 18:43 | 45.10995 | 3.45170 | 37952 ft | 425 kts | 234° |
| 2026-05-04 18:43 | 45.07581 | 3.38298 | 37950 ft | 425 kts | 234° |
| 2026-05-04 18:44 | 45.04190 | 3.31486 | 37963 ft | 425 kts | 234° |
| 2026-05-04 18:44 | 45.00766 | 3.24625 | 37947 ft | 425 kts | 234° |
| 2026-05-04 18:45 | 44.97356 | 3.17809 | 37954 ft | 425 kts | 234° |
| 2026-05-04 18:45 | 44.93954 | 3.11023 | 37949 ft | 425 kts | 233° |
| 2026-05-04 18:46 | 44.90526 | 3.04205 | 37949 ft | 425 kts | 233° |
| 2026-05-04 18:46 | 44.87097 | 2.97398 | 37943 ft | 425 kts | 233° |
| 2026-05-04 18:47 | 44.83682 | 2.90580 | 37947 ft | 425 kts | 235° |
| 2026-05-04 18:47 | 44.80482 | 2.83579 | 37941 ft | 426 kts | 236° |
| 2026-05-04 18:48 | 44.77296 | 2.76564 | 37940 ft | 426 kts | 236° |
| 2026-05-04 18:48 | 44.74072 | 2.69565 | 37936 ft | 426 kts | 236° |
| 2026-05-04 18:49 | 44.70823 | 2.62554 | 37936 ft | 427 kts | 235° |
| 2026-05-04 18:49 | 44.67590 | 2.55595 | 37936 ft | 427 kts | 235° |
| 2026-05-04 18:50 | 44.64336 | 2.48607 | 37935 ft | 427 kts | 235° |
| 2026-05-04 18:50 | 44.61070 | 2.41611 | 37938 ft | 427 kts | 235° |
| 2026-05-04 18:51 | 44.57830 | 2.34684 | 37932 ft | 426 kts | 235° |
| 2026-05-04 18:51 | 44.54568 | 2.27731 | 37936 ft | 426 kts | 235° |
| 2026-05-04 18:52 | 44.51297 | 2.20774 | 37936 ft | 426 kts | 235° |
| 2026-05-04 18:52 | 44.48025 | 2.13832 | 37933 ft | 426 kts | 235° |
| 2026-05-04 18:53 | 44.44749 | 2.06896 | 37935 ft | 426 kts | 235° |
| 2026-05-04 18:53 | 44.41485 | 2.00002 | 37932 ft | 426 kts | 235° |
| 2026-05-04 18:54 | 44.38210 | 1.93103 | 37929 ft | 426 kts | 235° |
| 2026-05-04 18:54 | 44.34914 | 1.86176 | 37928 ft | 426 kts | 235° |
| 2026-05-04 18:55 | 44.31627 | 1.79285 | 37931 ft | 426 kts | 234° |
| 2026-05-04 18:55 | 44.26750 | 1.68917 | 37934 ft | 426 kts | 236° |
| 2026-05-04 18:56 | 44.23557 | 1.61909 | 37932 ft | 427 kts | 236° |
| 2026-05-04 18:56 | 44.20363 | 1.54947 | 37935 ft | 427 kts | 236° |
| 2026-05-04 18:57 | 44.17145 | 1.47973 | 37931 ft | 427 kts | 236° |
| 2026-05-04 18:57 | 44.13918 | 1.41001 | 37936 ft | 427 kts | 236° |
| 2026-05-04 18:58 | 44.10709 | 1.34082 | 37932 ft | 427 kts | 235° |
| 2026-05-04 18:58 | 44.07478 | 1.27134 | 37933 ft | 427 kts | 235° |
| 2026-05-04 18:59 | 44.04234 | 1.20173 | 37933 ft | 428 kts | 235° |
| 2026-05-04 18:59 | 44.00978 | 1.13204 | 37931 ft | 429 kts | 235° |
| 2026-05-04 19:00 | 43.97722 | 1.06250 | 37930 ft | 430 kts | 235° |
| 2026-05-04 19:00 | 43.94458 | 0.99298 | 37933 ft | 430 kts | 235° |
| 2026-05-04 19:01 | 43.91194 | 0.92362 | 37935 ft | 431 kts | 235° |
| 2026-05-04 19:01 | 43.87926 | 0.85402 | 37938 ft | 431 kts | 237° |
| 2026-05-04 19:02 | 43.84838 | 0.78204 | 37938 ft | 432 kts | 238° |
| 2026-05-04 19:02 | 43.81808 | 0.71050 | 37941 ft | 432 kts | 238° |
| 2026-05-04 19:03 | 43.78735 | 0.63900 | 37946 ft | 432 kts | 238° |
| 2026-05-04 19:03 | 43.75641 | 0.56748 | 37949 ft | 433 kts | 238° |
| 2026-05-04 19:04 | 43.72540 | 0.49601 | 37954 ft | 433 kts | 238° |